TAF LFAC
METAR LFAC
LFAC 270900Z AUTO 06008KT 9999 FEW006 BKN016 BKN160 02/02 Q0987=
LFAC 270830Z AUTO 07007KT 9999 BKN011 OVC160 02/02 Q0986=
LFAC 270800Z AUTO 09008KT 9999 OVC008 02/02 Q0985=
LFAC 270730Z AUTO 09009KT 9999 -RADZ OVC007 02/02 Q0985=
LFAC 270700Z AUTO 10009KT 9999 -DZ OVC006 02/01 Q0984=
WC LFAC
WS LFAC
WV LFAC